createdAt,value
2022-08-16T00:01:11.589Z,100445.81
2022-08-16T00:03:38.530Z,100450.13
2022-08-16T00:06:07.473Z,100453.34
2022-08-16T00:08:36.965Z,100455.19
2022-08-16T00:11:06.811Z,100464.97
2022-08-16T00:13:41.741Z,100463.84
2022-08-16T00:17:06.292Z,100459.53
2022-08-16T00:18:56.308Z,100465.72
2022-08-16T00:21:23.367Z,100475.47
2022-08-16T00:23:49.759Z,100469.50
2022-08-16T00:26:36.487Z,100462.19
2022-08-16T00:29:04.823Z,100468.13
2022-08-16T00:31:59.352Z,100476.81
2022-08-16T00:34:21.955Z,100454.84
2022-08-16T00:37:07.942Z,100471.72
2022-08-16T00:39:35.813Z,100475.28
2022-08-16T00:42:02.319Z,100474.75
2022-08-16T00:44:31.887Z,100466.34
2022-08-16T00:47:05.977Z,100449.25
2022-08-16T00:49:37.900Z,100468.25
2022-08-16T00:52:06.253Z,100466.88
2022-08-16T00:54:52.671Z,100473.13
2022-08-16T00:57:20.145Z,100467.69
2022-08-16T00:59:58.756Z,100473.69
2022-08-16T01:02:31.583Z,100475.56
2022-08-16T01:05:09.159Z,100467.44
2022-08-16T01:07:50.806Z,100473.94
2022-08-16T01:10:19.539Z,100472.06
2022-08-16T01:12:46.242Z,100463.09
2022-08-16T01:15:13.333Z,100464.47
2022-08-16T01:17:42.334Z,100467.44
2022-08-16T01:20:23.882Z,100457.13
2022-08-16T01:23:21.310Z,100465.00
2022-08-16T01:26:00.321Z,100464.16
2022-08-16T01:28:45.616Z,100454.16
2022-08-16T01:31:13.931Z,100463.09
2022-08-16T01:33:44.632Z,100449.81
2022-08-16T01:36:13.028Z,100454.69
2022-08-16T01:38:48.926Z,100455.72
2022-08-16T01:41:23.630Z,100466.56
2022-08-16T01:43:54.344Z,100460.56
2022-08-16T01:46:29.801Z,100467.38
2022-08-16T01:49:42.766Z,100463.28
2022-08-16T01:52:28.026Z,100469.50
2022-08-16T01:54:57.178Z,100471.63
2022-08-16T01:57:24.742Z,100471.13
2022-08-16T01:59:54.737Z,100473.53
2022-08-16T02:02:28.566Z,100479.16
2022-08-16T02:04:57.597Z,100476.72
2022-08-16T02:07:24.606Z,100469.97
2022-08-16T02:09:57.180Z,100459.69
2022-08-16T02:12:50.274Z,100465.63
2022-08-16T02:15:14.143Z,100454.00
2022-08-16T02:17:40.853Z,100456.72
2022-08-16T02:20:11.708Z,100458.59
2022-08-16T02:22:39.354Z,100451.00
2022-08-16T02:25:10.786Z,100453.44
2022-08-16T02:27:40.983Z,100427.09
2022-08-16T02:30:37.228Z,100422.50
2022-08-16T02:33:03.144Z,100449.69
2022-08-16T02:35:30.216Z,100441.00
2022-08-16T02:37:56.715Z,100440.47
2022-08-16T02:40:28.399Z,100431.19
2022-08-16T02:42:56.263Z,100445.38
2022-08-16T02:45:27.961Z,100439.72
2022-08-16T02:48:01.274Z,100430.19
2022-08-16T02:50:54.230Z,100423.47
2022-08-16T02:53:28.624Z,100429.44
2022-08-16T02:55:56.587Z,100437.81
2022-08-16T02:58:25.200Z,100436.44
2022-08-16T03:00:57.516Z,100430.47
2022-08-16T03:03:25.992Z,100428.84
2022-08-16T03:05:53.361Z,100437.25
2022-08-16T03:08:50.230Z,100439.97
2022-08-16T03:11:17.888Z,100441.59
2022-08-16T03:13:51.265Z,100416.56
2022-08-16T03:16:32.964Z,100449.97
2022-08-16T03:19:06.861Z,100445.69
2022-08-16T03:21:38.035Z,100440.53
2022-08-16T03:24:28.658Z,100454.41
2022-08-16T03:26:58.221Z,100444.34
2022-08-16T03:29:33.174Z,100447.31
2022-08-16T03:32:01.704Z,100453.59
2022-08-16T03:34:30.131Z,100453.09
2022-08-16T03:36:57.396Z,100438.25
2022-08-16T03:39:24.615Z,100448.81
2022-08-16T03:41:59.874Z,100451.22
2022-08-16T03:44:44.809Z,100443.88
2022-08-16T03:47:19.162Z,100439.59
2022-08-16T03:49:47.980Z,100446.69
2022-08-16T03:52:20.394Z,100441.25
2022-08-16T03:54:58.287Z,100436.59
2022-08-16T03:57:32.053Z,100444.97
2022-08-16T04:00:20.575Z,100447.91
2022-08-16T04:03:07.713Z,100453.28
2022-08-16T04:05:38.018Z,100451.34
2022-08-16T04:08:23.831Z,100445.88
2022-08-16T04:10:52.900Z,100450.78
2022-08-16T04:13:20.282Z,100454.34
2022-08-16T04:16:06.598Z,100455.44
2022-08-16T04:18:33.152Z,100444.81
2022-08-16T04:20:59.538Z,100469.81
2022-08-16T04:23:26.030Z,100477.16
2022-08-16T04:25:52.418Z,100474.97
2022-08-16T04:28:51.989Z,100473.09
2022-08-16T04:31:07.313Z,100479.78
2022-08-16T04:33:37.062Z,100478.44
2022-08-16T04:36:04.800Z,100491.44
2022-08-16T04:38:32.565Z,100481.69
2022-08-16T04:40:59.030Z,100493.03
2022-08-16T04:43:26.479Z,100484.34
2022-08-16T04:46:00.030Z,100493.88
2022-08-16T04:48:32.870Z,100485.47
2022-08-16T04:51:01.292Z,100487.69
2022-08-16T04:53:34.498Z,100482.25
2022-08-16T04:56:01.240Z,100486.03
2022-08-16T04:58:44.825Z,100492.75
2022-08-16T05:01:13.370Z,100499.75
2022-08-16T05:04:00.994Z,100491.34
2022-08-16T05:06:42.391Z,100497.84
2022-08-16T05:09:12.147Z,100488.16
2022-08-16T05:11:39.078Z,100487.06
2022-08-16T05:14:07.180Z,100497.94
2022-08-16T05:16:33.810Z,100496.88
2022-08-16T05:19:02.286Z,100502.53
2022-08-16T05:21:38.010Z,100503.34
2022-08-16T05:24:07.085Z,100507.50
2022-08-16T05:26:37.415Z,100504.22
2022-08-16T05:29:07.488Z,100508.34
2022-08-16T05:31:37.579Z,100510.84
2022-08-16T05:34:19.880Z,100510.78
2022-08-16T05:36:49.261Z,100518.09
2022-08-16T05:39:18.424Z,100517.56
2022-08-16T05:41:47.587Z,100526.56
2022-08-16T05:44:22.537Z,100519.53
2022-08-16T05:46:56.185Z,100517.63
2022-08-16T05:49:23.484Z,100522.31
2022-08-16T05:51:50.269Z,100526.16
2022-08-16T05:54:20.309Z,100519.91
2022-08-16T05:56:52.638Z,100520.78
2022-08-16T05:59:19.177Z,100533.88
2022-08-16T06:01:45.706Z,100532.53
2022-08-16T06:04:36.644Z,100533.94
2022-08-16T06:07:04.508Z,100532.31
2022-08-16T06:09:42.946Z,100526.38
2022-08-16T06:12:11.941Z,100536.72
2022-08-16T06:14:40.010Z,100523.41
2022-08-16T06:17:06.981Z,100534.56
2022-08-16T06:19:33.937Z,100534.28
2022-08-16T06:22:02.262Z,100523.41
2022-08-16T06:24:53.980Z,100534.31
2022-08-16T06:27:15.121Z,100531.31
2022-08-16T06:29:44.683Z,100548.16
2022-08-16T06:32:27.814Z,100551.94
2022-08-16T06:35:02.256Z,100549.78
2022-08-16T06:37:37.610Z,100555.50
2022-08-16T06:40:05.600Z,100549.81
2022-08-16T06:42:47.485Z,100552.53
2022-08-16T06:45:15.263Z,100560.13
2022-08-16T06:47:42.004Z,100541.66
2022-08-16T06:50:29.305Z,100556.91
2022-08-16T06:53:00.433Z,100550.09
2022-08-16T06:55:33.680Z,100547.69
2022-08-16T06:58:01.590Z,100550.41
2022-08-16T07:00:34.726Z,100551.25
2022-08-16T07:03:26.689Z,100553.13
2022-08-16T07:05:52.356Z,100555.31
2022-08-16T07:08:20.359Z,100553.97
2022-08-16T07:10:46.902Z,100559.66
2022-08-16T07:13:16.842Z,100569.16
2022-08-16T07:15:59.484Z,100573.50
2022-08-16T07:18:26.781Z,100573.50
2022-08-16T07:20:53.604Z,100565.91
2022-08-16T07:23:21.198Z,100571.84
2022-08-16T07:26:05.257Z,100572.41
2022-08-16T07:28:31.727Z,100576.47
2022-08-16T07:30:59.939Z,100581.63
2022-08-16T07:33:53.696Z,100577.03
2022-08-16T07:36:14.916Z,100586.78
2022-08-16T07:38:48.863Z,100580.53
2022-08-16T07:41:16.476Z,100584.91
2022-08-16T07:43:43.311Z,100590.06
2022-08-16T07:46:38.090Z,100583.53
2022-08-16T07:49:02.416Z,100600.38
2022-08-16T07:51:34.721Z,100594.66
2022-08-16T07:54:10.089Z,100594.38
2022-08-16T07:56:37.546Z,100599.78
2022-08-16T07:59:04.871Z,100608.22
2022-08-16T08:01:31.961Z,100598.16
2022-08-16T08:03:59.288Z,100605.19
2022-08-16T08:06:28.661Z,100581.00
2022-08-16T08:08:57.280Z,100602.72
2022-08-16T08:11:28.428Z,100615.22
2022-08-16T08:13:57.572Z,100616.53
2022-08-16T08:16:30.465Z,100625.47
2022-08-16T08:19:00.715Z,100618.41
2022-08-16T08:21:58.435Z,100616.41
2022-08-16T08:24:16.278Z,100611.78
2022-08-16T08:26:43.497Z,100618.56
2022-08-16T08:29:11.925Z,100613.38
2022-08-16T08:31:41.022Z,100614.44
2022-08-16T08:34:07.519Z,100615.50
2022-08-16T08:36:38.280Z,100625.50
2022-08-16T08:39:12.635Z,100603.75
2022-08-16T08:41:40.502Z,100617.84
2022-08-16T08:44:28.675Z,100609.91
2022-08-16T08:46:59.805Z,100616.38
2022-08-16T08:49:54.924Z,100625.81
2022-08-16T08:52:34.850Z,100623.31
2022-08-16T08:55:10.527Z,100640.09
2022-08-16T08:57:43.141Z,100644.91
2022-08-16T09:00:13.854Z,100647.31
2022-08-16T09:02:45.660Z,100654.31
2022-08-16T09:05:20.764Z,100652.25
2022-08-16T09:08:00.250Z,100663.31
2022-08-16T09:10:29.602Z,100648.00
2022-08-16T09:12:56.355Z,100653.09
2022-08-16T09:15:23.910Z,100633.88
2022-08-16T09:17:54.825Z,100647.66
2022-08-16T09:20:23.755Z,100659.66
2022-08-16T09:22:52.958Z,100659.50
2022-08-16T09:25:33.587Z,100661.94
2022-08-16T09:28:02.304Z,100666.63
2022-08-16T09:30:43.221Z,100643.00
2022-08-16T09:33:12.262Z,100660.75
2022-08-16T09:35:42.387Z,100660.13
2022-08-16T09:38:09.892Z,100660.00
2022-08-16T09:40:42.505Z,100652.09
2022-08-16T09:43:21.080Z,100669.69
2022-08-16T09:45:59.105Z,100677.59
2022-08-16T09:48:44.887Z,100667.84
2022-08-16T09:51:13.932Z,100670.59
2022-08-16T09:53:41.333Z,100668.66
2022-08-16T09:56:26.596Z,100638.81
2022-08-16T09:59:05.214Z,100684.97
2022-08-16T10:01:36.945Z,100677.63
2022-08-16T10:04:28.858Z,100676.03
2022-08-16T10:06:54.169Z,100682.34
2022-08-16T10:09:24.701Z,100673.84
2022-08-16T10:12:11.564Z,100676.88
2022-08-16T10:14:46.245Z,100668.91
2022-08-16T10:17:12.916Z,100670.09
2022-08-16T10:19:39.619Z,100684.31
2022-08-16T10:22:06.213Z,100681.28
2022-08-16T10:24:34.010Z,100692.28
2022-08-16T10:27:26.187Z,100685.47
2022-08-16T10:30:00.004Z,100689.47
2022-08-16T10:32:30.677Z,100702.59
2022-08-16T10:34:59.222Z,100692.28
2022-08-16T10:37:32.174Z,100695.00
2022-08-16T10:40:02.768Z,100699.44
2022-08-16T10:42:29.313Z,100700.53
2022-08-16T10:44:56.286Z,100704.38
2022-08-16T10:47:23.214Z,100695.47
2022-08-16T10:49:50.362Z,100700.03
2022-08-16T10:52:18.591Z,100695.66
2022-08-16T10:57:33.086Z,100703.66
2022-08-16T11:00:00.104Z,100706.00
2022-08-16T11:02:59.168Z,100712.56
2022-08-16T11:05:16.849Z,100684.34
2022-08-16T11:07:52.577Z,100710.88
2022-08-16T11:16:26.373Z,100730.31
2022-08-16T11:19:04.430Z,100724.91
2022-08-16T11:21:33.351Z,100736.22
2022-08-16T11:24:01.549Z,100731.31
2022-08-16T11:26:29.769Z,100736.94
2022-08-16T11:29:13.845Z,100747.16
2022-08-16T11:31:45.644Z,100735.53
2022-08-16T11:34:21.111Z,100731.69
2022-08-16T11:36:59.263Z,100742.97
2022-08-16T11:39:30.026Z,100748.22
2022-08-16T11:41:58.513Z,100743.19
2022-08-16T11:44:53.102Z,100747.41
2022-08-16T11:47:13.323Z,100750.50
2022-08-16T11:49:39.833Z,100739.41
2022-08-16T11:52:07.379Z,100754.34
2022-08-16T11:54:36.812Z,100767.69
2022-08-16T11:57:09.369Z,100752.09
2022-08-16T11:59:39.809Z,100764.56
2022-08-16T12:02:30.961Z,100740.59
2022-08-16T12:04:55.791Z,100763.47
2022-08-16T12:07:23.802Z,100763.38
2022-08-16T12:09:53.018Z,100762.03
2022-08-16T12:12:20.134Z,100770.25
2022-08-16T12:14:46.569Z,100769.81
2022-08-16T12:17:14.287Z,100763.41
2022-08-16T12:19:41.357Z,100777.78
2022-08-16T12:22:18.984Z,100779.72
2022-08-16T12:24:47.888Z,100790.75
2022-08-16T12:27:18.151Z,100798.34
2022-08-16T12:29:44.540Z,100799.44
2022-08-16T12:32:27.100Z,100798.66
2022-08-16T12:34:58.270Z,100797.31
2022-08-16T12:37:25.591Z,100795.78
2022-08-16T12:39:58.261Z,100806.19
2022-08-16T12:42:34.458Z,100791.69
2022-08-16T12:45:07.905Z,100801.38
2022-08-16T12:48:04.839Z,100805.44
2022-08-16T12:50:36.641Z,100799.97
2022-08-16T12:53:03.388Z,100802.63
2022-08-16T12:55:33.620Z,100810.44
2022-08-16T12:58:13.870Z,100813.34
2022-08-16T13:00:54.624Z,100787.19
2022-08-16T13:03:21.634Z,100791.53
2022-08-16T13:05:55.541Z,100809.38
2022-08-16T13:08:22.727Z,100812.31
2022-08-16T13:10:57.427Z,100818.50
2022-08-16T13:13:25.231Z,100799.72
2022-08-16T13:15:55.947Z,100809.19
2022-08-16T13:18:34.041Z,100816.06
2022-08-16T13:21:06.306Z,100806.84
2022-08-16T13:23:33.926Z,100807.16
2022-08-16T13:26:03.281Z,100810.03
2022-08-16T13:28:29.778Z,100816.81
2022-08-16T13:30:57.921Z,100805.84
2022-08-16T13:33:30.780Z,100812.44
2022-08-16T13:36:01.068Z,100808.91
2022-08-16T13:38:31.350Z,100813.84
2022-08-16T13:41:05.517Z,100807.78
2022-08-16T13:43:35.652Z,100808.59
2022-08-16T13:46:04.246Z,100815.19
2022-08-16T13:48:43.250Z,100817.19
2022-08-16T13:51:16.918Z,100822.75
2022-08-16T13:53:45.887Z,100824.22
2022-08-16T13:56:25.337Z,100823.50
2022-08-16T13:58:54.795Z,100819.41
2022-08-16T14:01:22.174Z,100812.09
2022-08-16T14:03:48.943Z,100807.00
2022-08-16T14:06:15.721Z,100820.38
2022-08-16T14:08:59.208Z,100815.50
2022-08-16T14:11:32.549Z,100818.25
2022-08-16T14:13:59.374Z,100819.03
2022-08-16T14:16:33.505Z,100816.22
2022-08-16T14:19:00.940Z,100813.25
2022-08-16T14:21:35.301Z,100818.50
2022-08-16T14:24:12.773Z,100813.34
2022-08-16T14:26:50.587Z,100805.50
2022-08-16T14:31:53.756Z,100809.66
2022-08-16T14:34:21.115Z,100813.13
2022-08-16T14:36:51.258Z,100819.03
2022-08-16T14:39:18.690Z,100809.81
2022-08-16T14:41:45.090Z,100818.59
2022-08-16T14:44:11.534Z,100819.72
2022-08-16T14:46:38.160Z,100823.09
2022-08-16T14:49:05.181Z,100824.19
2022-08-16T14:51:35.670Z,100824.34
2022-08-16T14:54:03.243Z,100823.31
2022-08-16T14:56:39.014Z,100820.56
2022-08-16T14:59:09.119Z,100833.94
2022-08-16T15:01:57.807Z,100832.28
2022-08-16T15:04:39.332Z,100832.09
2022-08-16T15:07:11.202Z,100833.47
2022-08-16T15:10:01.098Z,100833.50
2022-08-16T15:12:33.354Z,100843.09
2022-08-16T15:15:04.381Z,100837.13
2022-08-16T15:17:41.109Z,100833.84
2022-08-16T15:20:10.887Z,100837.97
2022-08-16T15:22:41.133Z,100842.09
2022-08-16T15:25:12.423Z,100838.25
2022-08-16T15:27:42.134Z,100848.88
2022-08-16T15:30:58.016Z,100832.72
2022-08-16T15:33:04.632Z,100846.31
2022-08-16T15:35:31.640Z,100853.22
2022-08-16T15:38:00.667Z,100852.38
2022-08-16T15:40:35.173Z,100849.41
2022-08-16T15:43:04.741Z,100852.44
2022-08-16T15:45:55.775Z,100850.47
2022-08-16T15:48:29.179Z,100850.97
2022-08-16T15:50:59.048Z,100850.56
2022-08-16T15:53:30.688Z,100836.59
2022-08-16T15:55:59.806Z,100838.44
2022-08-16T15:58:35.032Z,100837.06
2022-08-16T16:01:05.805Z,100839.78
2022-08-16T16:03:34.733Z,100843.06
2022-08-16T16:06:02.463Z,100840.16
2022-08-16T16:08:29.200Z,100838.22
2022-08-16T16:10:59.419Z,100832.50
2022-08-16T16:13:26.650Z,100833.34
2022-08-16T16:15:56.226Z,100830.66
2022-08-16T16:18:26.060Z,100842.06
2022-08-16T16:20:55.988Z,100818.69
2022-08-16T16:23:29.288Z,100833.41
2022-08-16T16:25:56.708Z,100847.41
2022-08-16T16:29:06.538Z,100840.47
2022-08-16T16:31:16.142Z,100838.03
2022-08-16T16:33:47.703Z,100847.00
2022-08-16T16:36:19.791Z,100849.81
2022-08-16T16:38:48.557Z,100856.31
2022-08-16T16:41:22.330Z,100856.38
2022-08-16T16:43:53.345Z,100866.63
2022-08-16T16:46:40.139Z,100845.06
2022-08-16T16:49:10.287Z,100868.75
2022-08-16T16:51:40.771Z,100869.63
2022-08-16T16:54:08.463Z,100871.94
2022-08-16T16:56:37.677Z,100881.00
2022-08-16T16:59:10.366Z,100875.88
2022-08-16T17:01:59.080Z,100853.13
2022-08-16T17:04:31.735Z,100871.63
2022-08-16T17:07:00.920Z,100866.44
2022-08-16T17:09:27.609Z,100871.72
2022-08-16T17:11:55.594Z,100866.25
2022-08-16T17:14:33.313Z,100864.94
2022-08-16T17:17:03.902Z,100867.44
2022-08-16T17:19:32.622Z,100863.66
2022-08-16T17:22:00.931Z,100854.72
2022-08-16T17:24:33.138Z,100862.88
2022-08-16T17:27:06.194Z,100861.78
2022-08-16T17:29:32.657Z,100858.84
2022-08-16T17:32:20.073Z,100852.59
2022-08-16T17:34:46.574Z,100860.81
2022-08-16T17:37:17.759Z,100858.69
2022-08-16T17:40:00.372Z,100869.91
2022-08-16T17:42:30.791Z,100864.22
2022-08-16T17:44:57.248Z,100865.63
2022-08-16T17:47:24.243Z,100873.00
2022-08-16T17:49:50.973Z,100872.22
2022-08-16T17:52:17.523Z,100868.41
2022-08-16T17:54:44.654Z,100879.88
2022-08-16T17:57:11.578Z,100873.91
2022-08-16T17:59:41.068Z,100881.81
2022-08-16T18:02:41.050Z,100880.72
2022-08-16T18:04:54.196Z,100866.06
2022-08-16T18:07:21.341Z,100867.94
2022-08-16T18:09:47.754Z,100871.75
2022-08-16T18:12:44.223Z,100870.13
2022-08-16T18:15:06.469Z,100877.75
2022-08-16T18:17:32.937Z,100873.69
2022-08-16T18:19:59.473Z,100874.19
2022-08-16T18:22:30.836Z,100868.22
2022-08-16T18:24:57.993Z,100858.94
2022-08-16T18:27:25.521Z,100853.22
2022-08-16T18:29:53.022Z,100850.50
2022-08-16T18:32:21.887Z,100852.44
2022-08-16T18:34:50.817Z,100842.63
2022-08-16T18:37:17.189Z,100838.03
2022-08-16T18:39:43.778Z,100835.84
2022-08-16T18:42:13.208Z,100841.56
2022-08-16T18:44:42.567Z,100812.16
2022-08-16T18:47:09.094Z,100853.25
2022-08-16T18:49:36.438Z,100861.13
2022-08-16T18:52:03.842Z,100865.78
2022-08-16T18:54:32.233Z,100877.19
2022-08-16T18:56:58.736Z,100878.81
2022-08-16T18:59:30.217Z,100875.81
2022-08-16T19:02:03.932Z,100872.81
2022-08-16T19:04:47.624Z,100871.97
2022-08-16T19:07:31.139Z,100874.69
2022-08-16T19:10:01.787Z,100887.41
2022-08-16T19:12:47.054Z,100877.63
2022-08-16T19:15:21.286Z,100882.78
2022-08-16T19:17:48.541Z,100893.38
2022-08-16T19:20:19.079Z,100896.94
2022-08-16T19:23:05.702Z,100900.47
2022-08-16T19:25:46.103Z,100909.72
2022-08-16T19:28:21.798Z,100908.09
2022-08-16T19:31:08.635Z,100905.66
2022-08-16T19:33:35.471Z,100911.59
2022-08-16T19:36:04.360Z,100912.69
2022-08-16T19:38:31.078Z,100905.91
2022-08-16T19:40:57.557Z,100917.88
2022-08-16T19:43:24.010Z,100920.09
2022-08-16T19:45:52.940Z,100933.41
2022-08-16T19:48:19.543Z,100941.56
2022-08-16T19:50:45.982Z,100939.06
2022-08-16T19:53:18.816Z,100928.44
2022-08-16T19:55:47.449Z,100948.09
2022-08-16T20:00:43.482Z,100948.31
2022-08-16T20:03:12.925Z,100947.75
2022-08-16T20:05:42.043Z,100943.16
2022-08-16T20:08:11.165Z,100936.09
2022-08-16T20:10:38.975Z,100941.84
2022-08-16T20:13:11.277Z,100937.72
2022-08-16T20:15:40.626Z,100941.50
2022-08-16T20:18:21.277Z,100946.41
2022-08-16T20:20:52.401Z,100950.47
2022-08-16T20:23:24.728Z,100953.47
2022-08-16T20:25:55.843Z,100959.47
2022-08-16T20:28:40.763Z,100971.97
2022-08-16T20:31:11.393Z,100965.19
2022-08-16T20:33:37.986Z,100971.50
2022-08-16T20:36:04.473Z,100969.03
2022-08-16T20:38:31.111Z,100966.56
2022-08-16T20:40:57.522Z,100964.91
2022-08-16T20:43:23.905Z,100970.06
2022-08-16T20:45:50.351Z,100971.97
2022-08-16T20:48:16.933Z,100968.69
2022-08-16T20:50:43.843Z,100973.84
2022-08-16T20:53:11.843Z,100977.88
2022-08-16T20:55:40.069Z,100975.97
2022-08-16T20:58:06.498Z,100972.16
2022-08-16T21:00:33.655Z,100976.75
2022-08-16T21:03:01.583Z,100983.78
2022-08-16T21:05:30.964Z,100982.97
2022-08-16T21:07:57.813Z,100984.28
2022-08-16T21:10:24.245Z,100973.31
2022-08-16T21:12:54.492Z,100985.28
2022-08-16T21:15:23.516Z,100980.38
2022-08-16T21:17:50.159Z,100978.50
2022-08-16T21:20:16.954Z,100981.72
2022-08-16T21:22:51.225Z,100975.97
2022-08-16T21:25:23.346Z,100968.34
2022-08-16T21:28:40.479Z,100977.03
2022-08-16T21:30:37.423Z,100977.59
2022-08-16T21:33:13.575Z,100991.75
2022-08-16T21:35:43.105Z,100995.00
2022-08-16T21:38:30.125Z,100998.84
2022-08-16T21:40:58.813Z,100995.28
2022-08-16T21:43:25.497Z,101000.97
2022-08-16T21:45:55.373Z,100991.44
2022-08-16T21:48:35.195Z,100995.47
2022-08-16T21:51:08.481Z,100997.41
2022-08-16T21:53:36.200Z,100989.47
2022-08-16T21:56:05.169Z,100990.84
2022-08-16T21:58:31.909Z,100992.69
2022-08-16T22:00:59.521Z,100994.34
2022-08-16T22:03:26.057Z,100990.53
2022-08-16T22:06:11.661Z,100982.91
2022-08-16T22:08:50.406Z,100981.81
2022-08-16T22:11:23.666Z,100987.97
2022-08-16T22:13:57.811Z,100985.47
2022-08-16T22:16:27.424Z,100969.88
2022-08-16T22:18:53.845Z,100982.47
2022-08-16T22:21:20.444Z,100972.34
2022-08-16T22:23:56.493Z,100975.91
2022-08-16T22:26:29.966Z,100971.03
2022-08-16T22:28:58.426Z,100964.53
2022-08-16T22:31:25.365Z,100959.91
2022-08-16T22:33:51.854Z,100956.94
2022-08-16T22:36:18.291Z,100959.91
2022-08-16T22:38:54.905Z,100963.25
2022-08-16T22:41:23.956Z,100961.88
2022-08-16T22:43:50.387Z,100967.03
2022-08-16T22:46:17.090Z,100967.31
2022-08-16T22:48:43.505Z,100967.84
2022-08-16T22:51:10.120Z,100963.75
2022-08-16T22:53:37.461Z,100958.91
2022-08-16T22:56:04.577Z,100963.50
2022-08-16T22:58:36.878Z,100961.81
2022-08-16T23:01:05.861Z,100976.72
2022-08-16T23:03:32.836Z,100971.53
2022-08-16T23:06:00.496Z,100966.84
2022-08-16T23:08:39.624Z,100946.41
2022-08-16T23:11:19.388Z,100958.91
2022-08-16T23:13:49.712Z,100973.25
2022-08-16T23:16:22.524Z,100965.09
2022-08-16T23:18:49.506Z,100962.06
2022-08-16T23:21:17.522Z,100964.72
2022-08-16T23:23:46.553Z,100962.00
2022-08-16T23:26:44.974Z,100945.69
2022-08-16T23:29:04.530Z,100956.06
2022-08-16T23:31:32.614Z,100952.84
2022-08-16T23:33:59.384Z,100947.13
2022-08-16T23:36:25.788Z,100946.88
2022-08-16T23:38:52.234Z,100960.97
2022-08-16T23:41:18.642Z,100953.41
2022-08-16T23:43:45.041Z,100960.47
2022-08-16T23:46:16.994Z,100956.16
2022-08-16T23:50:01.436Z,100947.97
2022-08-16T23:51:32.265Z,100950.94
2022-08-16T23:53:58.971Z,100954.19
2022-08-16T23:56:25.842Z,100951.47
2022-08-16T23:59:02.106Z,100949.84
